Mason, Texas
Current Conditions -  °F | °C
As of 3:35 PM on Friday 28 Nov 2014 (Local Time) from KBBD Reporting Station
Clear Clear  
Wind Chill: 72°   Ceiling: Unl
Heat Index: 72°   Visibility: 10mi
Dew Point: 39°   Wind: 16mph
Humidity: 31%   Direction: 190°S
Pressure: 30.07"   Gusts: NA
Location:  30.75°N, 99.23°W
Report Text: KBBD 282135Z AUTO 19014KT 10SM CLR 22/04 A3007 RMK
Loading
Personal Weather Stations






























Interactive Weather Map New forecast layout! Learn more

10-Day Weather Forecast

Advertisements
Track Severe Weather on mobile